createdAt,value
2022-11-22T00:00:49.314Z,6.78
2022-11-22T00:03:17.042Z,6.63
2022-11-22T00:05:46.151Z,5.85
2022-11-22T00:08:13.936Z,6.40
2022-11-22T00:10:41.675Z,6.25
2022-11-22T00:13:09.430Z,6.20
2022-11-22T00:15:37.201Z,6.32
2022-11-22T00:18:04.908Z,7.60
2022-11-22T00:20:32.796Z,7.22
2022-11-22T00:23:01.925Z,7.03
2022-11-22T00:25:29.607Z,7.13
2022-11-22T00:27:57.367Z,6.55
2022-11-22T00:30:25.114Z,6.72
2022-11-22T00:32:52.904Z,6.13
2022-11-22T00:35:20.573Z,6.28
2022-11-22T00:37:48.323Z,5.65
2022-11-22T00:40:17.700Z,6.68
2022-11-22T00:42:45.463Z,7.50
2022-11-22T00:45:13.262Z,6.80
2022-11-22T00:47:40.966Z,7.55
2022-11-22T00:50:09.389Z,6.97
2022-11-22T00:52:37.155Z,7.50
2022-11-22T00:55:05.161Z,7.38
2022-11-22T00:57:34.360Z,6.78
2022-11-22T01:00:02.076Z,6.90
2022-11-22T01:02:29.822Z,7.15
2022-11-22T01:04:57.663Z,6.93
2022-11-22T01:07:25.476Z,6.55
2022-11-22T01:09:53.277Z,7.50
2022-11-22T01:12:21.003Z,7.30
2022-11-22T01:14:50.202Z,6.90
2022-11-22T01:17:18.697Z,7.40
2022-11-22T01:19:46.712Z,6.63
2022-11-22T01:22:14.534Z,6.78
2022-11-22T01:24:42.328Z,6.70
2022-11-22T01:27:10.057Z,6.97
2022-11-22T01:29:38.023Z,6.60
2022-11-22T01:32:07.464Z,7.40
2022-11-22T01:34:35.135Z,6.40
2022-11-22T01:37:02.880Z,6.43
2022-11-22T01:39:30.801Z,6.95
2022-11-22T01:41:58.691Z,7.30
2022-11-22T01:44:28.900Z,7.38
2022-11-22T01:46:58.724Z,6.40
2022-11-22T01:49:32.737Z,6.15
2022-11-22T01:52:07.136Z,6.65
2022-11-22T01:54:40.934Z,6.72
2022-11-22T01:57:14.739Z,6.88
2022-11-22T01:59:48.888Z,7.45
2022-11-22T02:02:16.918Z,7.47
2022-11-22T02:04:47.303Z,8.07
2022-11-22T02:07:21.836Z,8.60
2022-11-22T02:09:52.399Z,8.07
2022-11-22T02:12:24.340Z,8.02
2022-11-22T02:14:53.126Z,7.97
2022-11-22T02:17:20.851Z,7.53
2022-11-22T02:19:51.088Z,8.55
2022-11-22T02:22:32.575Z,8.65
2022-11-22T02:25:07.967Z,8.25
2022-11-22T02:27:37.118Z,8.75
2022-11-22T02:30:05.645Z,7.47
2022-11-22T02:32:33.499Z,8.45
2022-11-22T02:35:01.288Z,8.45
2022-11-22T02:37:33.825Z,8.15
2022-11-22T02:40:06.035Z,7.30
2022-11-22T02:42:35.002Z,7.68
2022-11-22T02:45:04.285Z,8.35
2022-11-22T02:47:31.986Z,8.23
2022-11-22T02:49:59.782Z,8.20
2022-11-22T02:52:27.511Z,8.00
2022-11-22T02:54:55.371Z,7.75
2022-11-22T02:57:23.142Z,7.47
2022-11-22T02:59:50.862Z,8.02
2022-11-22T03:02:19.971Z,7.78
2022-11-22T03:04:47.932Z,8.07
2022-11-22T03:07:17.397Z,7.30
2022-11-22T03:09:45.307Z,7.68
2022-11-22T03:12:13.071Z,7.40
2022-11-22T03:14:40.867Z,7.68
2022-11-22T03:17:08.944Z,7.20
2022-11-22T03:19:38.017Z,8.02
2022-11-22T03:22:05.774Z,7.68
2022-11-22T03:24:33.465Z,7.70
2022-11-22T03:27:01.365Z,7.45
2022-11-22T03:29:29.203Z,7.78
2022-11-22T03:31:57.167Z,7.85
2022-11-22T03:34:25.105Z,8.20
2022-11-22T03:36:54.164Z,7.38
2022-11-22T03:39:21.953Z,7.63
2022-11-22T03:41:49.631Z,7.82
2022-11-22T03:44:17.329Z,7.18
2022-11-22T03:46:45.046Z,7.05
2022-11-22T03:49:13.071Z,6.22
2022-11-22T03:51:40.801Z,6.63
2022-11-22T03:54:09.951Z,6.75
2022-11-22T03:56:37.743Z,5.68
2022-11-22T03:59:05.546Z,5.78
2022-11-22T04:01:33.361Z,5.95
2022-11-22T04:04:01.100Z,6.18
2022-11-22T04:06:28.783Z,6.05
2022-11-22T04:08:56.572Z,6.25
2022-11-22T04:11:25.697Z,5.82
2022-11-22T04:14:10.741Z,5.28
2022-11-22T04:16:38.503Z,5.85
2022-11-22T04:19:06.268Z,6.03
2022-11-22T04:21:36.045Z,4.93
2022-11-22T04:24:22.641Z,6.53
2022-11-22T04:26:52.119Z,6.57
2022-11-22T04:29:20.427Z,6.50
2022-11-22T04:32:06.705Z,6.07
2022-11-22T04:34:34.718Z,6.05
2022-11-22T04:37:03.505Z,6.63
2022-11-22T04:39:31.460Z,6.75
2022-11-22T04:42:18.447Z,6.30
2022-11-22T04:44:46.613Z,6.55
2022-11-22T04:47:38.766Z,7.82
2022-11-22T04:50:30.001Z,8.27
2022-11-22T04:52:57.588Z,7.97
2022-11-22T04:55:25.693Z,8.13
2022-11-22T04:57:59.550Z,6.93
2022-11-22T05:00:28.086Z,7.25
2022-11-22T05:02:56.068Z,7.97
2022-11-22T05:05:24.040Z,6.53
2022-11-22T05:07:51.906Z,5.32
2022-11-22T05:10:24.708Z,5.00
2022-11-22T05:12:56.492Z,4.20
2022-11-22T05:15:24.432Z,4.15
2022-11-22T05:17:52.232Z,3.75
2022-11-22T05:20:20.146Z,3.00
2022-11-22T05:23:05.260Z,3.28
2022-11-22T05:25:33.031Z,3.35
2022-11-22T05:28:02.142Z,3.03
2022-11-22T05:30:29.825Z,2.70
2022-11-22T05:32:57.557Z,2.92
2022-11-22T05:35:25.315Z,3.13
2022-11-22T05:37:53.050Z,2.70
2022-11-22T05:40:20.927Z,2.40
2022-11-22T05:42:48.650Z,2.58
2022-11-22T05:45:18.432Z,2.72
2022-11-22T05:47:46.331Z,2.72
2022-11-22T05:50:14.573Z,3.03
2022-11-22T05:52:42.357Z,2.72
2022-11-22T05:55:10.305Z,2.28
2022-11-22T05:57:38.044Z,2.78
2022-11-22T06:00:07.010Z,2.35
2022-11-22T06:02:36.196Z,2.22
2022-11-22T06:05:04.179Z,2.13
2022-11-22T06:07:32.010Z,1.50
2022-11-22T06:09:59.869Z,2.47
2022-11-22T06:12:27.674Z,2.03
2022-11-22T06:14:55.467Z,2.05
2022-11-22T06:17:23.506Z,2.30
2022-11-22T06:19:52.578Z,2.20
2022-11-22T06:22:20.243Z,2.40
2022-11-22T06:24:47.975Z,1.90
2022-11-22T06:27:15.735Z,1.90
2022-11-22T06:29:43.598Z,2.63
2022-11-22T06:32:11.356Z,1.98
2022-11-22T06:34:39.092Z,1.63
2022-11-22T06:37:08.257Z,1.63
2022-11-22T06:39:36.497Z,1.50
2022-11-22T06:42:04.237Z,1.58
2022-11-22T06:44:32.072Z,1.55
2022-11-22T06:46:59.781Z,1.33
2022-11-22T06:49:27.902Z,1.30
2022-11-22T06:51:55.784Z,1.20
2022-11-22T06:54:24.937Z,1.40
2022-11-22T06:56:52.670Z,1.10
2022-11-22T06:59:20.614Z,1.27
2022-11-22T07:01:48.404Z,1.23
2022-11-22T07:04:16.091Z,1.42
2022-11-22T07:06:44.278Z,1.20
2022-11-22T07:09:12.876Z,1.10
2022-11-22T07:11:42.620Z,1.25
2022-11-22T07:14:10.410Z,1.10
2022-11-22T07:16:39.325Z,1.55
2022-11-22T07:19:07.810Z,25.17
2022-11-22T07:21:37.272Z,18.13
2022-11-22T07:24:07.286Z,6.97
2022-11-22T07:26:35.228Z,1.60
2022-11-22T07:29:05.091Z,1.48
2022-11-22T07:31:32.882Z,1.45
2022-11-22T07:34:01.018Z,1.52
2022-11-22T07:36:30.435Z,1.83
2022-11-22T07:38:58.340Z,2.03
2022-11-22T07:41:26.151Z,1.60
2022-11-22T07:43:54.074Z,1.30
2022-11-22T07:46:26.181Z,1.73
2022-11-22T07:48:54.250Z,1.48
2022-11-22T07:51:22.129Z,1.70
2022-11-22T07:53:49.837Z,1.38
2022-11-22T07:56:18.014Z,2.10
2022-11-22T07:58:45.952Z,1.38
2022-11-22T08:01:16.574Z,2.13
2022-11-22T08:03:46.380Z,5.20
2022-11-22T08:06:15.044Z,2.92
2022-11-22T08:08:42.792Z,1.73
2022-11-22T08:11:11.826Z,1.85
2022-11-22T08:13:40.044Z,1.67
2022-11-22T08:16:10.847Z,1.65
2022-11-22T08:18:39.597Z,2.05
2022-11-22T08:21:10.467Z,2.15
2022-11-22T08:23:38.776Z,1.65
2022-11-22T08:26:08.409Z,1.30
2022-11-22T08:28:36.550Z,1.50
2022-11-22T08:31:07.160Z,1.45
2022-11-22T08:33:35.162Z,1.95
2022-11-22T08:36:02.936Z,1.70
2022-11-22T08:38:32.096Z,2.05
2022-11-22T08:40:59.866Z,1.63
2022-11-22T08:43:27.696Z,1.92
2022-11-22T08:45:58.063Z,2.13
2022-11-22T08:48:26.720Z,2.17
2022-11-22T08:50:56.080Z,2.10
2022-11-22T08:53:24.204Z,2.10
2022-11-22T08:55:53.383Z,1.73
2022-11-22T08:58:21.451Z,1.40
2022-11-22T09:00:49.143Z,1.65
2022-11-22T09:03:16.937Z,1.40
2022-11-22T09:08:36.429Z,1.48
2022-11-22T09:11:12.248Z,1.83
2022-11-22T09:13:40.898Z,1.52
2022-11-22T09:16:11.379Z,2.00
2022-11-22T09:18:39.198Z,1.58
2022-11-22T09:21:08.264Z,2.00
2022-11-22T09:23:36.698Z,1.52
2022-11-22T09:26:08.220Z,1.33
2022-11-22T09:28:36.793Z,1.80
2022-11-22T09:31:06.621Z,1.45
2022-11-22T09:33:36.097Z,1.80
2022-11-22T09:36:05.382Z,1.50
2022-11-22T09:38:34.171Z,1.63
2022-11-22T09:41:07.994Z,1.67
2022-11-22T09:43:48.375Z,1.40
2022-11-22T09:46:29.435Z,1.60
2022-11-22T09:49:26.931Z,1.65
2022-11-22T09:52:00.862Z,1.85
2022-11-22T09:54:34.782Z,1.42
2022-11-22T09:57:05.764Z,1.27
2022-11-22T09:59:39.987Z,1.33
2022-11-22T10:02:18.714Z,1.60
2022-11-22T10:04:53.271Z,3.20
2022-11-22T10:07:27.226Z,3.17
2022-11-22T10:10:02.887Z,2.40
2022-11-22T10:12:39.240Z,2.30
2022-11-22T10:15:20.403Z,1.73
2022-11-22T10:17:54.015Z,1.60
2022-11-22T10:20:23.514Z,1.55
2022-11-22T10:22:51.536Z,1.85
2022-11-22T10:25:21.915Z,1.55
2022-11-22T10:27:59.086Z,1.23
2022-11-22T10:30:35.600Z,1.75
2022-11-22T10:33:14.192Z,1.85
2022-11-22T10:35:58.524Z,1.55
2022-11-22T10:38:50.504Z,1.45
2022-11-22T10:41:33.940Z,1.65
2022-11-22T10:44:13.889Z,1.55
2022-11-22T10:46:57.115Z,2.17
2022-11-22T10:49:38.630Z,1.67
2022-11-22T10:52:16.486Z,1.52
2022-11-22T10:54:53.276Z,1.13
2022-11-22T10:57:32.943Z,1.40
2022-11-22T11:00:16.908Z,4.38
2022-11-22T11:03:16.925Z,1.52
2022-11-22T11:06:20.982Z,1.52
2022-11-22T11:11:28.385Z,1.52
2022-11-22T11:13:59.629Z,1.40
2022-11-22T11:16:32.100Z,1.97
2022-11-22T11:19:08.833Z,1.70
2022-11-22T11:21:37.170Z,1.40
2022-11-22T11:24:12.505Z,1.30
2022-11-22T11:26:41.305Z,1.52
2022-11-22T11:29:37.698Z,1.48
2022-11-22T11:32:09.302Z,1.85
2022-11-22T11:34:39.467Z,1.85
2022-11-22T11:37:07.678Z,1.52
2022-11-22T11:39:39.449Z,1.40
2022-11-22T11:42:26.015Z,1.38
2022-11-22T11:44:53.826Z,4.63
2022-11-22T11:47:33.946Z,1.70
2022-11-22T11:50:03.062Z,1.38
2022-11-22T11:52:31.627Z,1.33
2022-11-22T11:55:03.164Z,2.10
2022-11-22T11:57:34.906Z,1.70
2022-11-22T12:00:05.460Z,5.57
2022-11-22T12:02:39.713Z,1.48
2022-11-22T12:05:27.266Z,1.27
2022-11-22T12:07:55.047Z,2.35
2022-11-22T12:10:32.449Z,1.67
2022-11-22T12:13:05.102Z,1.75
2022-11-22T12:15:42.110Z,1.83
2022-11-22T12:18:26.525Z,1.60
2022-11-22T12:21:05.273Z,1.60
2022-11-22T12:23:40.456Z,1.75
2022-11-22T12:26:08.482Z,2.10
2022-11-22T12:28:36.593Z,1.27
2022-11-22T12:31:14.813Z,1.88
2022-11-22T12:33:44.918Z,1.77
2022-11-22T12:36:18.791Z,1.90
2022-11-22T12:38:48.637Z,1.10
2022-11-22T12:41:21.286Z,1.70
2022-11-22T12:43:54.909Z,1.30
2022-11-22T12:46:26.893Z,1.40
2022-11-22T12:48:57.810Z,1.60
2022-11-22T12:51:35.608Z,6.05
2022-11-22T12:54:10.048Z,1.75
2022-11-22T12:56:47.950Z,1.40
2022-11-22T12:59:26.515Z,1.60
2022-11-22T13:02:06.095Z,1.40
2022-11-22T13:04:42.763Z,1.30
2022-11-22T13:07:18.586Z,1.52
2022-11-22T13:09:54.003Z,1.40
2022-11-22T13:12:28.011Z,1.55
2022-11-22T13:14:56.897Z,1.63
2022-11-22T13:17:27.246Z,1.77
2022-11-22T13:19:59.836Z,1.63
2022-11-22T13:22:36.624Z,1.60
2022-11-22T13:25:36.291Z,1.35
2022-11-22T13:28:12.503Z,1.35
2022-11-22T13:30:40.503Z,1.38
2022-11-22T13:33:25.445Z,2.00
2022-11-22T13:36:35.533Z,1.55
2022-11-22T13:39:08.103Z,1.08
2022-11-22T13:41:41.294Z,1.00
2022-11-22T13:44:34.642Z,1.48
2022-11-22T13:47:03.467Z,1.30
2022-11-22T13:49:45.084Z,1.52
2022-11-22T13:52:44.306Z,1.30
2022-11-22T13:55:40.358Z,1.02
2022-11-22T13:58:51.069Z,1.13
2022-11-22T14:02:01.863Z,2.13
2022-11-22T14:04:39.052Z,1.10
2022-11-22T14:07:22.836Z,1.35
2022-11-22T14:09:59.164Z,1.10
2022-11-22T14:12:56.250Z,1.00
2022-11-22T14:15:59.037Z,1.20
2022-11-22T14:18:47.257Z,1.30
2022-11-22T14:21:22.885Z,1.15
2022-11-22T14:24:06.010Z,1.75
2022-11-22T14:26:47.135Z,0.88
2022-11-22T14:29:48.198Z,1.00
2022-11-22T14:32:21.845Z,1.25
2022-11-22T14:35:37.605Z,1.23
2022-11-22T14:38:30.761Z,0.93
2022-11-22T14:41:42.880Z,1.20
2022-11-22T14:44:16.192Z,2.42
2022-11-22T14:46:53.850Z,1.10
2022-11-22T14:49:31.095Z,1.23
2022-11-22T14:52:00.575Z,1.15
2022-11-22T14:54:31.947Z,1.20
2022-11-22T14:57:04.665Z,1.20
2022-11-22T15:00:03.505Z,1.00
2022-11-22T15:03:07.039Z,1.15
2022-11-22T15:09:10.452Z,1.40
2022-11-22T15:09:14.763Z,1.30
2022-11-22T15:12:02.227Z,1.10
2022-11-22T15:57:49.796Z,1.58
2022-11-22T16:00:21.807Z,1.30
2022-11-22T16:02:51.388Z,1.30
2022-11-22T16:06:09.510Z,1.30
2022-11-22T16:08:16.461Z,1.48
2022-11-22T16:10:50.802Z,1.17
2022-11-22T16:13:29.128Z,1.75
2022-11-22T16:16:20.587Z,1.45
2022-11-22T16:18:48.858Z,1.60
2022-11-22T16:21:28.926Z,1.10
2022-11-22T16:24:12.578Z,1.05
2022-11-22T16:26:43.937Z,1.42
2022-11-22T16:29:26.018Z,1.88
2022-11-22T16:32:01.287Z,1.33
2022-11-22T16:34:29.087Z,1.02
2022-11-22T16:36:56.918Z,1.50
2022-11-22T16:39:24.716Z,1.10
2022-11-22T16:41:54.037Z,1.20
2022-11-22T16:44:22.579Z,1.20
2022-11-22T16:46:50.334Z,1.45
2022-11-22T16:49:19.863Z,1.20
2022-11-22T16:51:48.608Z,1.27
2022-11-22T16:54:18.806Z,1.52
2022-11-22T16:56:46.914Z,1.10
2022-11-22T16:59:16.026Z,1.48
2022-11-22T17:01:44.841Z,1.35
2022-11-22T17:04:22.102Z,1.20
2022-11-22T17:06:50.311Z,1.20
2022-11-22T17:09:18.127Z,1.13
2022-11-22T17:11:46.461Z,1.00
2022-11-22T17:14:16.464Z,1.30
2022-11-22T17:16:45.785Z,1.52
2022-11-22T17:19:30.294Z,1.25
2022-11-22T17:22:01.857Z,1.40
2022-11-22T17:24:29.952Z,1.35
2022-11-22T17:26:58.031Z,1.30
2022-11-22T17:32:14.877Z,1.33
2022-11-22T17:34:42.611Z,3.00
2022-11-22T17:37:12.256Z,1.23
2022-11-22T17:39:40.183Z,1.20
2022-11-22T17:42:07.969Z,0.98
2022-11-22T17:44:37.085Z,1.30
2022-11-22T17:47:04.798Z,1.17
2022-11-22T17:49:32.765Z,1.17
2022-11-22T17:52:00.850Z,2.80
2022-11-22T17:54:28.558Z,2.92
2022-11-22T17:56:56.286Z,1.20
2022-11-22T17:59:24.030Z,1.30
2022-11-22T18:01:53.177Z,1.40
2022-11-22T18:04:20.984Z,0.80
2022-11-22T18:06:48.673Z,1.13
2022-11-22T18:09:16.416Z,1.20
2022-11-22T18:11:44.701Z,1.00
2022-11-22T18:14:12.581Z,1.30
2022-11-22T18:16:40.352Z,0.88
2022-11-22T18:19:09.422Z,1.20
2022-11-22T18:21:37.780Z,1.02
2022-11-22T18:24:06.556Z,1.10
2022-11-22T18:26:42.127Z,1.20
2022-11-22T18:29:41.750Z,1.20
2022-11-22T18:31:59.934Z,1.42
2022-11-22T18:34:29.822Z,1.27
2022-11-22T18:39:45.950Z,1.25
2022-11-22T18:42:15.371Z,1.40
2022-11-22T18:44:43.419Z,0.80
2022-11-22T18:47:11.249Z,0.80
2022-11-22T18:49:40.355Z,1.15
2022-11-22T18:52:09.690Z,1.00
2022-11-22T18:54:39.727Z,1.00
2022-11-22T18:57:07.466Z,1.13
2022-11-22T18:59:35.219Z,1.08
2022-11-22T19:02:02.898Z,3.10
2022-11-22T19:04:30.969Z,1.17
2022-11-22T19:07:00.285Z,0.90
2022-11-22T19:09:28.034Z,1.58
2022-11-22T19:11:58.780Z,1.20
2022-11-22T19:14:28.892Z,0.90
2022-11-22T19:16:57.237Z,0.80
2022-11-22T19:19:25.191Z,1.13
2022-11-22T19:21:52.947Z,1.10
2022-11-22T19:24:22.037Z,10.60
2022-11-22T19:26:49.765Z,1.00
2022-11-22T19:29:17.918Z,0.80
2022-11-22T19:31:45.625Z,1.40
2022-11-22T19:34:13.386Z,1.10
2022-11-22T19:36:41.434Z,1.10
2022-11-22T19:39:13.345Z,1.00
2022-11-22T19:41:43.787Z,1.08
2022-11-22T19:44:12.221Z,0.90
2022-11-22T19:46:41.460Z,1.10
2022-11-22T19:49:10.116Z,1.15
2022-11-22T19:51:39.108Z,1.00
2022-11-22T19:54:07.567Z,0.90
2022-11-22T19:56:37.374Z,1.30
2022-11-22T19:59:09.760Z,1.35
2022-11-22T20:01:37.730Z,1.38
2022-11-22T20:04:07.218Z,6.25
2022-11-22T20:06:36.619Z,1.42
2022-11-22T20:09:05.756Z,1.10
2022-11-22T20:11:33.625Z,1.00
2022-11-22T20:14:01.596Z,1.40
2022-11-22T20:16:32.075Z,14.63
2022-11-22T20:19:01.282Z,1.30
2022-11-22T20:21:31.836Z,1.35
2022-11-22T20:24:00.624Z,1.08
2022-11-22T20:26:29.318Z,1.45
2022-11-22T20:28:58.919Z,1.08
2022-11-22T20:31:27.591Z,1.40
2022-11-22T20:33:56.892Z,1.75
2022-11-22T20:36:26.731Z,1.50
2022-11-22T20:38:54.996Z,1.48
2022-11-22T20:41:24.826Z,1.30
2022-11-22T20:43:52.827Z,1.08
2022-11-22T20:46:22.268Z,1.13
2022-11-22T20:48:52.065Z,1.38
2022-11-22T20:51:22.608Z,0.88
2022-11-22T20:53:50.921Z,1.45
2022-11-22T20:56:19.470Z,1.08
2022-11-22T20:58:47.499Z,1.60
2022-11-22T21:01:16.952Z,1.10
2022-11-22T21:03:44.929Z,1.10
2022-11-22T21:06:13.869Z,1.50
2022-11-22T21:08:44.594Z,1.17
2022-11-22T21:11:14.206Z,1.48
2022-11-22T21:13:42.917Z,2.05
2022-11-22T21:16:22.799Z,1.23
2022-11-22T21:18:52.657Z,1.35
2022-11-22T21:21:23.019Z,1.20
2022-11-22T21:23:53.878Z,1.20
2022-11-22T21:26:22.779Z,1.17
2022-11-22T21:28:50.553Z,1.13
2022-11-22T21:31:19.025Z,1.40
2022-11-22T21:33:46.877Z,1.30
2022-11-22T21:36:14.996Z,1.05
2022-11-22T21:38:42.709Z,1.45
2022-11-22T21:44:02.721Z,1.35
2022-11-22T21:46:30.403Z,1.38
2022-11-22T21:48:58.150Z,1.30
2022-11-22T21:51:26.474Z,1.20
2022-11-22T21:53:58.550Z,1.63
2022-11-22T21:56:28.434Z,1.35
2022-11-22T21:58:56.445Z,1.20
2022-11-22T22:01:24.725Z,1.48
2022-11-22T22:03:52.973Z,1.33
2022-11-22T22:06:21.023Z,1.73
2022-11-22T22:08:49.087Z,2.22
2022-11-22T22:11:17.015Z,1.17
2022-11-22T22:13:46.191Z,1.60
2022-11-22T22:16:19.047Z,1.00
2022-11-22T22:18:47.346Z,1.40
2022-11-22T22:21:15.829Z,1.45
2022-11-22T22:23:44.568Z,0.98
2022-11-22T22:26:14.592Z,1.30
2022-11-22T22:28:42.539Z,1.08
2022-11-22T22:31:13.864Z,0.93
2022-11-22T22:33:42.755Z,1.10
2022-11-22T22:36:11.671Z,0.90
2022-11-22T22:38:39.800Z,1.10
2022-11-22T22:41:10.525Z,1.00
2022-11-22T22:43:40.132Z,1.10
2022-11-22T22:46:10.869Z,1.38
2022-11-22T22:48:40.372Z,0.90
2022-11-22T22:51:10.235Z,1.17
2022-11-22T22:53:38.192Z,1.40
2022-11-22T22:56:07.421Z,1.10
2022-11-22T22:58:35.457Z,1.70
2022-11-22T23:01:08.394Z,2.53
2022-11-22T23:03:36.181Z,1.15
2022-11-22T23:06:10.425Z,1.10
2022-11-22T23:08:39.231Z,0.90
2022-11-22T23:11:09.576Z,0.95
2022-11-22T23:13:39.491Z,1.10
2022-11-22T23:16:09.610Z,1.20
2022-11-22T23:18:39.524Z,0.98
2022-11-22T23:21:11.644Z,1.10
2022-11-22T23:26:09.604Z,1.15
2022-11-22T23:28:37.747Z,1.40
2022-11-22T23:31:07.146Z,1.00
2022-11-22T23:33:35.422Z,1.02
2022-11-22T23:36:05.292Z,1.20
2022-11-22T23:38:34.749Z,1.30
2022-11-22T23:41:02.683Z,2.17
2022-11-22T23:43:30.704Z,1.73
2022-11-22T23:45:59.638Z,1.45
2022-11-22T23:48:27.631Z,1.17
2022-11-22T23:50:55.479Z,1.10
2022-11-22T23:53:23.264Z,1.40
2022-11-22T23:55:52.411Z,1.10
2022-11-22T23:58:20.118Z,1.17
